sensor_id;sensor_type;location;lat;lon;timestamp;temperature;humidity
27741;DHT22;15134;48.768;9.184;2022-07-22T00:02:18;23.30;99.90
27741;DHT22;15134;48.768;9.184;2022-07-22T00:04:44;23.30;99.90
27741;DHT22;15134;48.768;9.184;2022-07-22T00:07:10;23.20;99.90
27741;DHT22;15134;48.768;9.184;2022-07-22T00:09:36;23.10;99.90
27741;DHT22;15134;48.768;9.184;2022-07-22T00:12:01;23.00;99.90
27741;DHT22;15134;48.768;9.184;2022-07-22T00:14:27;23.00;99.90
27741;DHT22;15134;48.768;9.184;2022-07-22T00:16:53;23.00;99.90
27741;DHT22;15134;48.768;9.184;2022-07-22T00:19:19;23.00;99.90
27741;DHT22;15134;48.768;9.184;2022-07-22T00:21:44;23.00;99.90
27741;DHT22;15134;48.768;9.184;2022-07-22T00:24:10;23.00;99.90
27741;DHT22;15134;48.768;9.184;2022-07-22T00:26:36;23.00;99.90
27741;DHT22;15134;48.768;9.184;2022-07-22T00:29:02;22.90;99.90
27741;DHT22;15134;48.768;9.184;2022-07-22T00:31:27;22.80;99.90
27741;DHT22;15134;48.768;9.184;2022-07-22T00:33:53;22.70;99.90
27741;DHT22;15134;48.768;9.184;2022-07-22T00:36:19;22.70;99.90
27741;DHT22;15134;48.768;9.184;2022-07-22T00:38:45;22.80;99.90
27741;DHT22;15134;48.768;9.184;2022-07-22T00:41:10;22.90;99.90
27741;DHT22;15134;48.768;9.184;2022-07-22T00:43:59;22.90;99.90
27741;DHT22;15134;48.768;9.184;2022-07-22T00:46:26;22.90;99.90
27741;DHT22;15134;48.768;9.184;2022-07-22T00:48:53;22.90;99.90
27741;DHT22;15134;48.768;9.184;2022-07-22T00:51:21;22.90;99.90
27741;DHT22;15134;48.768;9.184;2022-07-22T00:53:48;22.90;99.90
27741;DHT22;15134;48.768;9.184;2022-07-22T00:56:15;22.90;99.90
27741;DHT22;15134;48.768;9.184;2022-07-22T00:58:41;22.90;99.90
27741;DHT22;15134;48.768;9.184;2022-07-22T01:01:07;22.90;99.90
27741;DHT22;15134;48.768;9.184;2022-07-22T01:03:33;22.90;99.90
27741;DHT22;15134;48.768;9.184;2022-07-22T01:05:59;22.80;99.90
27741;DHT22;15134;48.768;9.184;2022-07-22T01:08:25;22.80;99.90
27741;DHT22;15134;48.768;9.184;2022-07-22T01:10:51;22.70;99.90
27741;DHT22;15134;48.768;9.184;2022-07-22T01:13:17;22.70;99.90
27741;DHT22;15134;48.768;9.184;2022-07-22T01:15:42;22.70;99.90
27741;DHT22;15134;48.768;9.184;2022-07-22T01:18:08;22.70;99.90
27741;DHT22;15134;48.768;9.184;2022-07-22T01:20:35;22.60;99.90
27741;DHT22;15134;48.768;9.184;2022-07-22T01:23:01;22.50;99.90
27741;DHT22;15134;48.768;9.184;2022-07-22T01:25:27;22.60;99.90
27741;DHT22;15134;48.768;9.184;2022-07-22T01:27:54;22.60;99.90
27741;DHT22;15134;48.768;9.184;2022-07-22T01:30:19;22.60;99.90
27741;DHT22;15134;48.768;9.184;2022-07-22T01:32:45;22.60;99.90
27741;DHT22;15134;48.768;9.184;2022-07-22T01:35:11;22.60;99.90
27741;DHT22;15134;48.768;9.184;2022-07-22T01:37:37;22.50;99.90
27741;DHT22;15134;48.768;9.184;2022-07-22T01:40:03;22.40;99.90
27741;DHT22;15134;48.768;9.184;2022-07-22T01:42:29;22.40;99.90
27741;DHT22;15134;48.768;9.184;2022-07-22T01:44:55;22.40;99.90
27741;DHT22;15134;48.768;9.184;2022-07-22T01:47:21;22.50;99.90
27741;DHT22;15134;48.768;9.184;2022-07-22T01:49:47;22.50;99.90
27741;DHT22;15134;48.768;9.184;2022-07-22T01:52:13;22.40;99.90
27741;DHT22;15134;48.768;9.184;2022-07-22T01:54:41;22.40;99.90
27741;DHT22;15134;48.768;9.184;2022-07-22T01:57:07;22.40;99.90
27741;DHT22;15134;48.768;9.184;2022-07-22T01:59:41;22.40;99.90
27741;DHT22;15134;48.768;9.184;2022-07-22T02:02:07;22.30;99.90
27741;DHT22;15134;48.768;9.184;2022-07-22T02:04:32;22.40;99.90
27741;DHT22;15134;48.768;9.184;2022-07-22T02:06:58;22.40;99.90
27741;DHT22;15134;48.768;9.184;2022-07-22T02:09:24;22.40;99.90
27741;DHT22;15134;48.768;9.184;2022-07-22T02:11:52;22.40;99.90
27741;DHT22;15134;48.768;9.184;2022-07-22T02:14:18;22.40;99.90
27741;DHT22;15134;48.768;9.184;2022-07-22T02:16:45;22.40;99.90
27741;DHT22;15134;48.768;9.184;2022-07-22T02:19:11;22.40;99.90
27741;DHT22;15134;48.768;9.184;2022-07-22T02:21:36;22.20;99.90
27741;DHT22;15134;48.768;9.184;2022-07-22T02:24:03;22.20;99.90
27741;DHT22;15134;48.768;9.184;2022-07-22T02:26:29;22.10;99.90
27741;DHT22;15134;48.768;9.184;2022-07-22T02:28:55;22.10;99.90
27741;DHT22;15134;48.768;9.184;2022-07-22T02:31:21;22.10;99.90
27741;DHT22;15134;48.768;9.184;2022-07-22T02:33:47;22.10;99.90
27741;DHT22;15134;48.768;9.184;2022-07-22T02:36:13;22.00;99.90
27741;DHT22;15134;48.768;9.184;2022-07-22T02:38:39;22.00;99.90
27741;DHT22;15134;48.768;9.184;2022-07-22T02:41:05;22.00;99.90
27741;DHT22;15134;48.768;9.184;2022-07-22T02:43:33;22.00;99.90
27741;DHT22;15134;48.768;9.184;2022-07-22T02:45:59;22.00;99.90
27741;DHT22;15134;48.768;9.184;2022-07-22T02:48:25;21.90;99.90
27741;DHT22;15134;48.768;9.184;2022-07-22T02:50:51;21.90;99.90
27741;DHT22;15134;48.768;9.184;2022-07-22T02:53:22;21.90;99.90
27741;DHT22;15134;48.768;9.184;2022-07-22T02:55:48;22.00;99.90
27741;DHT22;15134;48.768;9.184;2022-07-22T02:58:13;22.00;99.90
27741;DHT22;15134;48.768;9.184;2022-07-22T03:00:42;22.00;99.90
27741;DHT22;15134;48.768;9.184;2022-07-22T03:03:08;22.00;99.90
27741;DHT22;15134;48.768;9.184;2022-07-22T03:05:34;22.00;99.90
27741;DHT22;15134;48.768;9.184;2022-07-22T03:08:16;22.00;99.90
27741;DHT22;15134;48.768;9.184;2022-07-22T03:10:42;22.00;99.90
27741;DHT22;15134;48.768;9.184;2022-07-22T03:13:07;22.00;99.90
27741;DHT22;15134;48.768;9.184;2022-07-22T03:15:33;21.90;99.90
27741;DHT22;15134;48.768;9.184;2022-07-22T03:18:00;21.90;99.90
27741;DHT22;15134;48.768;9.184;2022-07-22T03:20:26;21.90;99.90
27741;DHT22;15134;48.768;9.184;2022-07-22T03:22:52;21.80;99.90
27741;DHT22;15134;48.768;9.184;2022-07-22T03:25:18;21.70;99.90
27741;DHT22;15134;48.768;9.184;2022-07-22T03:27:44;21.70;99.90
27741;DHT22;15134;48.768;9.184;2022-07-22T03:30:10;21.70;99.90
27741;DHT22;15134;48.768;9.184;2022-07-22T03:32:38;21.80;99.90
27741;DHT22;15134;48.768;9.184;2022-07-22T03:35:05;21.80;99.90
27741;DHT22;15134;48.768;9.184;2022-07-22T03:37:35;21.80;99.90
27741;DHT22;15134;48.768;9.184;2022-07-22T03:40:01;21.80;99.90
27741;DHT22;15134;48.768;9.184;2022-07-22T03:42:27;21.80;99.90
27741;DHT22;15134;48.768;9.184;2022-07-22T03:44:53;21.80;99.90
27741;DHT22;15134;48.768;9.184;2022-07-22T03:47:21;21.80;99.90
27741;DHT22;15134;48.768;9.184;2022-07-22T03:49:48;21.80;99.90
27741;DHT22;15134;48.768;9.184;2022-07-22T03:52:18;21.70;99.90
27741;DHT22;15134;48.768;9.184;2022-07-22T03:54:45;21.70;99.90
27741;DHT22;15134;48.768;9.184;2022-07-22T03:57:11;21.70;99.90
27741;DHT22;15134;48.768;9.184;2022-07-22T03:59:37;21.70;99.90
27741;DHT22;15134;48.768;9.184;2022-07-22T04:02:04;21.70;99.90
27741;DHT22;15134;48.768;9.184;2022-07-22T04:04:30;21.80;99.90
27741;DHT22;15134;48.768;9.184;2022-07-22T04:06:56;21.60;99.90
27741;DHT22;15134;48.768;9.184;2022-07-22T04:09:28;21.40;99.90
27741;DHT22;15134;48.768;9.184;2022-07-22T04:11:54;21.40;99.90
27741;DHT22;15134;48.768;9.184;2022-07-22T04:14:23;21.40;99.90
27741;DHT22;15134;48.768;9.184;2022-07-22T04:16:48;21.40;99.90
27741;DHT22;15134;48.768;9.184;2022-07-22T04:19:14;21.50;99.90
27741;DHT22;15134;48.768;9.184;2022-07-22T04:21:50;21.60;99.90
27741;DHT22;15134;48.768;9.184;2022-07-22T04:24:18;21.60;99.90
27741;DHT22;15134;48.768;9.184;2022-07-22T04:26:44;21.70;99.90
27741;DHT22;15134;48.768;9.184;2022-07-22T04:29:10;21.60;99.90
27741;DHT22;15134;48.768;9.184;2022-07-22T04:31:35;21.60;99.90
27741;DHT22;15134;48.768;9.184;2022-07-22T04:34:06;21.60;99.90
27741;DHT22;15134;48.768;9.184;2022-07-22T04:36:32;21.60;99.90
27741;DHT22;15134;48.768;9.184;2022-07-22T04:38:58;21.60;99.90
27741;DHT22;15134;48.768;9.184;2022-07-22T04:41:24;21.70;99.90
27741;DHT22;15134;48.768;9.184;2022-07-22T04:43:50;21.70;99.90
27741;DHT22;15134;48.768;9.184;2022-07-22T04:46:19;21.60;99.90
27741;DHT22;15134;48.768;9.184;2022-07-22T04:48:44;21.60;99.90
27741;DHT22;15134;48.768;9.184;2022-07-22T04:51:10;21.50;99.90
27741;DHT22;15134;48.768;9.184;2022-07-22T04:53:36;21.40;99.90
27741;DHT22;15134;48.768;9.184;2022-07-22T04:56:02;21.20;99.90
27741;DHT22;15134;48.768;9.184;2022-07-22T04:58:28;21.10;99.90
27741;DHT22;15134;48.768;9.184;2022-07-22T05:00:54;21.10;99.90
27741;DHT22;15134;48.768;9.184;2022-07-22T05:03:20;21.10;99.90
27741;DHT22;15134;48.768;9.184;2022-07-22T05:05:46;21.10;99.90
27741;DHT22;15134;48.768;9.184;2022-07-22T05:08:13;21.30;99.90
27741;DHT22;15134;48.768;9.184;2022-07-22T05:10:40;21.50;99.90
27741;DHT22;15134;48.768;9.184;2022-07-22T05:13:06;21.90;99.90
27741;DHT22;15134;48.768;9.184;2022-07-22T05:15:33;22.30;99.90
27741;DHT22;15134;48.768;9.184;2022-07-22T05:17:59;22.60;99.90
27741;DHT22;15134;48.768;9.184;2022-07-22T05:20:28;22.70;99.90
27741;DHT22;15134;48.768;9.184;2022-07-22T05:22:54;23.00;99.90
27741;DHT22;15134;48.768;9.184;2022-07-22T05:25:24;23.20;99.90
27741;DHT22;15134;48.768;9.184;2022-07-22T05:27:54;23.30;99.90
27741;DHT22;15134;48.768;9.184;2022-07-22T05:30:32;23.20;99.90
27741;DHT22;15134;48.768;9.184;2022-07-22T05:32:58;23.40;99.90
27741;DHT22;15134;48.768;9.184;2022-07-22T05:35:47;23.60;99.90
27741;DHT22;15134;48.768;9.184;2022-07-22T05:38:13;23.90;99.90
27741;DHT22;15134;48.768;9.184;2022-07-22T05:40:39;24.20;99.90
27741;DHT22;15134;48.768;9.184;2022-07-22T05:43:04;24.50;99.90
27741;DHT22;15134;48.768;9.184;2022-07-22T05:45:30;24.80;99.90
27741;DHT22;15134;48.768;9.184;2022-07-22T05:47:56;25.00;99.90
27741;DHT22;15134;48.768;9.184;2022-07-22T05:50:23;25.00;99.90
27741;DHT22;15134;48.768;9.184;2022-07-22T05:52:49;25.10;99.90
27741;DHT22;15134;48.768;9.184;2022-07-22T05:55:15;25.10;99.90
27741;DHT22;15134;48.768;9.184;2022-07-22T05:57:43;25.20;99.90
27741;DHT22;15134;48.768;9.184;2022-07-22T06:00:09;25.60;99.90
27741;DHT22;15134;48.768;9.184;2022-07-22T06:02:42;25.90;99.90
27741;DHT22;15134;48.768;9.184;2022-07-22T06:05:13;26.30;99.90
27741;DHT22;15134;48.768;9.184;2022-07-22T06:07:39;26.70;99.90
27741;DHT22;15134;48.768;9.184;2022-07-22T06:10:07;26.90;99.90
27741;DHT22;15134;48.768;9.184;2022-07-22T06:12:34;27.10;99.90
27741;DHT22;15134;48.768;9.184;2022-07-22T06:14:59;27.40;99.90
27741;DHT22;15134;48.768;9.184;2022-07-22T06:17:25;27.80;99.90
27741;DHT22;15134;48.768;9.184;2022-07-22T06:19:52;28.20;99.90
27741;DHT22;15134;48.768;9.184;2022-07-22T06:22:18;29.10;99.90
27741;DHT22;15134;48.768;9.184;2022-07-22T06:24:44;29.90;99.90
27741;DHT22;15134;48.768;9.184;2022-07-22T06:27:11;30.80;99.90
27741;DHT22;15134;48.768;9.184;2022-07-22T06:29:37;31.60;99.90
27741;DHT22;15134;48.768;9.184;2022-07-22T06:32:03;32.40;99.90
27741;DHT22;15134;48.768;9.184;2022-07-22T06:34:29;33.00;99.50
27741;DHT22;15134;48.768;9.184;2022-07-22T06:37:02;33.40;97.90
27741;DHT22;15134;48.768;9.184;2022-07-22T06:39:27;34.10;96.00
27741;DHT22;15134;48.768;9.184;2022-07-22T06:42:14;34.70;94.00
27741;DHT22;15134;48.768;9.184;2022-07-22T06:44:58;35.50;92.30
27741;DHT22;15134;48.768;9.184;2022-07-22T06:47:36;36.30;90.70
27741;DHT22;15134;48.768;9.184;2022-07-22T06:50:04;36.80;88.50
27741;DHT22;15134;48.768;9.184;2022-07-22T06:52:30;37.50;86.10
27741;DHT22;15134;48.768;9.184;2022-07-22T06:54:58;37.80;84.00
27741;DHT22;15134;48.768;9.184;2022-07-22T06:57:28;38.00;82.60
27741;DHT22;15134;48.768;9.184;2022-07-22T06:59:54;38.70;80.40
27741;DHT22;15134;48.768;9.184;2022-07-22T07:02:20;39.30;78.60
27741;DHT22;15134;48.768;9.184;2022-07-22T07:04:46;39.90;76.40
27741;DHT22;15134;48.768;9.184;2022-07-22T07:07:12;40.60;75.60
27741;DHT22;15134;48.768;9.184;2022-07-22T07:09:48;41.30;73.00
27741;DHT22;15134;48.768;9.184;2022-07-22T07:12:21;42.10;70.00
27741;DHT22;15134;48.768;9.184;2022-07-22T07:15:13;42.90;68.50
27741;DHT22;15134;48.768;9.184;2022-07-22T07:17:38;43.60;66.40
27741;DHT22;15134;48.768;9.184;2022-07-22T07:20:07;44.20;64.00
27741;DHT22;15134;48.768;9.184;2022-07-22T07:22:33;44.60;62.60
27741;DHT22;15134;48.768;9.184;2022-07-22T07:25:04;45.10;61.40
27741;DHT22;15134;48.768;9.184;2022-07-22T07:27:31;45.60;59.70
27741;DHT22;15134;48.768;9.184;2022-07-22T07:29:57;45.90;58.80
27741;DHT22;15134;48.768;9.184;2022-07-22T07:32:23;45.80;58.60
27741;DHT22;15134;48.768;9.184;2022-07-22T07:34:49;46.20;57.30
27741;DHT22;15134;48.768;9.184;2022-07-22T07:37:14;46.60;56.20
27741;DHT22;15134;48.768;9.184;2022-07-22T07:39:41;47.00;56.10
27741;DHT22;15134;48.768;9.184;2022-07-22T07:42:07;47.40;55.10
27741;DHT22;15134;48.768;9.184;2022-07-22T07:44:33;47.80;54.20
27741;DHT22;15134;48.768;9.184;2022-07-22T07:47:00;48.10;53.70
27741;DHT22;15134;48.768;9.184;2022-07-22T07:49:26;48.40;53.00
27741;DHT22;15134;48.768;9.184;2022-07-22T07:51:52;48.60;52.20
27741;DHT22;15134;48.768;9.184;2022-07-22T07:54:18;48.60;52.80
27741;DHT22;15134;48.768;9.184;2022-07-22T07:56:45;48.60;52.30
27741;DHT22;15134;48.768;9.184;2022-07-22T07:59:11;48.80;51.90
27741;DHT22;15134;48.768;9.184;2022-07-22T08:01:38;48.50;51.60
27741;DHT22;15134;48.768;9.184;2022-07-22T08:04:05;48.50;51.30
27741;DHT22;15134;48.768;9.184;2022-07-22T08:06:30;48.60;51.10
27741;DHT22;15134;48.768;9.184;2022-07-22T08:08:56;48.60;51.10
27741;DHT22;15134;48.768;9.184;2022-07-22T08:11:30;48.40;51.00
27741;DHT22;15134;48.768;9.184;2022-07-22T08:14:12;48.60;50.80
27741;DHT22;15134;48.768;9.184;2022-07-22T08:16:45;48.30;50.30
27741;DHT22;15134;48.768;9.184;2022-07-22T08:19:11;48.30;50.40
27741;DHT22;15134;48.768;9.184;2022-07-22T08:21:37;48.20;50.70
27741;DHT22;15134;48.768;9.184;2022-07-22T08:24:21;47.80;50.70
27741;DHT22;15134;48.768;9.184;2022-07-22T08:26:48;48.00;50.50
27741;DHT22;15134;48.768;9.184;2022-07-22T08:29:14;48.00;50.90
27741;DHT22;15134;48.768;9.184;2022-07-22T08:31:39;48.30;50.10
27741;DHT22;15134;48.768;9.184;2022-07-22T08:34:09;48.50;49.50
27741;DHT22;15134;48.768;9.184;2022-07-22T08:36:34;48.80;49.40
27741;DHT22;15134;48.768;9.184;2022-07-22T08:39:01;49.00;48.80
27741;DHT22;15134;48.768;9.184;2022-07-22T08:41:27;49.20;48.50
27741;DHT22;15134;48.768;9.184;2022-07-22T08:43:52;49.20;48.40
27741;DHT22;15134;48.768;9.184;2022-07-22T08:46:19;49.40;48.00
27741;DHT22;15134;48.768;9.184;2022-07-22T08:49:04;49.50;48.00
27741;DHT22;15134;48.768;9.184;2022-07-22T08:51:54;49.50;47.60
27741;DHT22;15134;48.768;9.184;2022-07-22T08:54:23;49.50;47.40
27741;DHT22;15134;48.768;9.184;2022-07-22T08:56:50;49.60;47.20
27741;DHT22;15134;48.768;9.184;2022-07-22T08:59:16;49.10;47.40
27741;DHT22;15134;48.768;9.184;2022-07-22T09:02:02;48.90;47.40
27741;DHT22;15134;48.768;9.184;2022-07-22T09:04:29;48.10;48.00
27741;DHT22;15134;48.768;9.184;2022-07-22T09:06:56;48.20;48.40
27741;DHT22;15134;48.768;9.184;2022-07-22T09:09:31;48.40;48.40
27741;DHT22;15134;48.768;9.184;2022-07-22T09:12:30;48.00;48.20
27741;DHT22;15134;48.768;9.184;2022-07-22T09:15:10;46.80;48.90
27741;DHT22;15134;48.768;9.184;2022-07-22T09:17:50;46.30;49.30
27741;DHT22;15134;48.768;9.184;2022-07-22T09:20:30;45.80;50.20
27741;DHT22;15134;48.768;9.184;2022-07-22T09:23:17;46.30;49.70
27741;DHT22;15134;48.768;9.184;2022-07-22T09:25:46;46.40;49.20
27741;DHT22;15134;48.768;9.184;2022-07-22T09:28:31;45.40;50.70
27741;DHT22;15134;48.768;9.184;2022-07-22T09:31:29;45.00;51.10
27741;DHT22;15134;48.768;9.184;2022-07-22T09:34:30;44.50;51.40
27741;DHT22;15134;48.768;9.184;2022-07-22T09:37:00;44.40;51.70
27741;DHT22;15134;48.768;9.184;2022-07-22T09:39:31;45.10;50.70
27741;DHT22;15134;48.768;9.184;2022-07-22T09:42:05;45.70;50.20
27741;DHT22;15134;48.768;9.184;2022-07-22T09:44:31;45.90;49.40
27741;DHT22;15134;48.768;9.184;2022-07-22T09:47:02;44.70;50.10
27741;DHT22;15134;48.768;9.184;2022-07-22T09:49:48;43.60;51.30
27741;DHT22;15134;48.768;9.184;2022-07-22T09:52:35;42.40;53.00
27741;DHT22;15134;48.768;9.184;2022-07-22T09:55:07;41.70;53.70
27741;DHT22;15134;48.768;9.184;2022-07-22T09:57:33;41.30;54.30
27741;DHT22;15134;48.768;9.184;2022-07-22T09:59:59;40.60;55.10
27741;DHT22;15134;48.768;9.184;2022-07-22T10:05:21;38.10;58.90
27741;DHT22;15134;48.768;9.184;2022-07-22T10:07:49;36.90;61.10
27741;DHT22;15134;48.768;9.184;2022-07-22T10:10:18;35.50;63.50
27741;DHT22;15134;48.768;9.184;2022-07-22T10:12:47;34.90;64.80
27741;DHT22;15134;48.768;9.184;2022-07-22T10:15:13;34.60;66.00
27741;DHT22;15134;48.768;9.184;2022-07-22T10:17:43;34.60;66.00
27741;DHT22;15134;48.768;9.184;2022-07-22T10:20:10;34.20;67.20
27741;DHT22;15134;48.768;9.184;2022-07-22T10:25:13;33.40;69.90
27741;DHT22;15134;48.768;9.184;2022-07-22T10:28:03;33.00;70.80
27741;DHT22;15134;48.768;9.184;2022-07-22T10:33:15;32.70;71.80
27741;DHT22;15134;48.768;9.184;2022-07-22T10:38:09;32.50;72.30
27741;DHT22;15134;48.768;9.184;2022-07-22T10:40:58;32.60;72.90
27741;DHT22;15134;48.768;9.184;2022-07-22T10:43:32;32.40;73.00
27741;DHT22;15134;48.768;9.184;2022-07-22T10:46:10;32.10;73.50
27741;DHT22;15134;48.768;9.184;2022-07-22T10:51:11;31.50;75.20
27741;DHT22;15134;48.768;9.184;2022-07-22T10:53:57;31.10;76.20
27741;DHT22;15134;48.768;9.184;2022-07-22T10:56:31;31.00;77.20
27741;DHT22;15134;48.768;9.184;2022-07-22T10:59:11;31.30;76.40
27741;DHT22;15134;48.768;9.184;2022-07-22T11:01:43;31.10;76.80
27741;DHT22;15134;48.768;9.184;2022-07-22T11:04:15;31.30;77.10
27741;DHT22;15134;48.768;9.184;2022-07-22T11:06:42;31.40;76.30
27741;DHT22;15134;48.768;9.184;2022-07-22T11:09:10;31.10;76.40
27741;DHT22;15134;48.768;9.184;2022-07-22T11:11:44;31.10;76.80
27741;DHT22;15134;48.768;9.184;2022-07-22T11:14:31;31.10;77.50
27741;DHT22;15134;48.768;9.184;2022-07-22T11:19:29;31.40;77.40
27741;DHT22;15134;48.768;9.184;2022-07-22T11:22:00;31.50;76.40
27741;DHT22;15134;48.768;9.184;2022-07-22T11:24:28;31.10;77.20
27741;DHT22;15134;48.768;9.184;2022-07-22T11:26:55;31.10;77.30
27741;DHT22;15134;48.768;9.184;2022-07-22T11:29:25;30.90;77.60
27741;DHT22;15134;48.768;9.184;2022-07-22T11:31:52;31.00;77.70
27741;DHT22;15134;48.768;9.184;2022-07-22T11:34:18;30.90;78.00
27741;DHT22;15134;48.768;9.184;2022-07-22T11:36:46;31.00;75.50
27741;DHT22;15134;48.768;9.184;2022-07-22T11:39:14;31.10;74.50
27741;DHT22;15134;48.768;9.184;2022-07-22T11:41:43;30.80;75.00
27741;DHT22;15134;48.768;9.184;2022-07-22T11:44:09;30.80;75.00
27741;DHT22;15134;48.768;9.184;2022-07-22T11:46:40;30.90;73.60
27741;DHT22;15134;48.768;9.184;2022-07-22T11:49:07;31.00;74.00
27741;DHT22;15134;48.768;9.184;2022-07-22T11:51:35;31.00;74.80
27741;DHT22;15134;48.768;9.184;2022-07-22T11:54:01;31.00;73.20
27741;DHT22;15134;48.768;9.184;2022-07-22T11:56:27;30.90;75.00
27741;DHT22;15134;48.768;9.184;2022-07-22T11:58:53;30.80;74.20
27741;DHT22;15134;48.768;9.184;2022-07-22T12:01:25;30.70;74.70
27741;DHT22;15134;48.768;9.184;2022-07-22T12:03:54;30.60;74.90
27741;DHT22;15134;48.768;9.184;2022-07-22T12:06:21;30.60;75.70
27741;DHT22;15134;48.768;9.184;2022-07-22T12:08:52;30.80;76.10
27741;DHT22;15134;48.768;9.184;2022-07-22T12:11:20;30.70;76.30
27741;DHT22;15134;48.768;9.184;2022-07-22T12:13:48;30.60;76.40
27741;DHT22;15134;48.768;9.184;2022-07-22T12:16:23;30.70;76.70
27741;DHT22;15134;48.768;9.184;2022-07-22T12:18:54;30.80;76.10
27741;DHT22;15134;48.768;9.184;2022-07-22T12:21:21;30.90;76.30
27741;DHT22;15134;48.768;9.184;2022-07-22T12:23:53;31.00;76.20
27741;DHT22;15134;48.768;9.184;2022-07-22T12:26:19;31.10;75.30
27741;DHT22;15134;48.768;9.184;2022-07-22T12:28:45;31.10;74.10
27741;DHT22;15134;48.768;9.184;2022-07-22T12:31:11;30.90;73.40
27741;DHT22;15134;48.768;9.184;2022-07-22T12:33:36;30.80;73.00
27741;DHT22;15134;48.768;9.184;2022-07-22T12:36:07;30.70;73.00
27741;DHT22;15134;48.768;9.184;2022-07-22T12:38:33;30.60;73.40
27741;DHT22;15134;48.768;9.184;2022-07-22T12:41:34;30.60;73.10
27741;DHT22;15134;48.768;9.184;2022-07-22T12:44:25;30.60;73.10
27741;DHT22;15134;48.768;9.184;2022-07-22T12:46:55;30.70;73.90
27741;DHT22;15134;48.768;9.184;2022-07-22T12:49:25;30.70;74.20
27741;DHT22;15134;48.768;9.184;2022-07-22T12:52:11;30.60;75.60
27741;DHT22;15134;48.768;9.184;2022-07-22T12:54:38;30.60;75.80
27741;DHT22;15134;48.768;9.184;2022-07-22T12:57:06;30.50;76.10
27741;DHT22;15134;48.768;9.184;2022-07-22T12:59:32;30.50;75.90
27741;DHT22;15134;48.768;9.184;2022-07-22T13:01:58;30.60;75.80
27741;DHT22;15134;48.768;9.184;2022-07-22T13:04:24;30.60;75.70
27741;DHT22;15134;48.768;9.184;2022-07-22T13:06:50;30.60;76.00
27741;DHT22;15134;48.768;9.184;2022-07-22T13:09:16;30.60;74.90
27741;DHT22;15134;48.768;9.184;2022-07-22T13:11:41;30.60;74.80
27741;DHT22;15134;48.768;9.184;2022-07-22T13:14:11;30.60;78.60
27741;DHT22;15134;48.768;9.184;2022-07-22T13:16:37;30.60;74.70
27741;DHT22;15134;48.768;9.184;2022-07-22T13:19:03;30.60;74.60
27741;DHT22;15134;48.768;9.184;2022-07-22T13:21:29;30.50;75.00
27741;DHT22;15134;48.768;9.184;2022-07-22T13:23:55;30.50;74.80
27741;DHT22;15134;48.768;9.184;2022-07-22T13:26:21;30.50;72.90
27741;DHT22;15134;48.768;9.184;2022-07-22T13:28:47;30.50;72.40
27741;DHT22;15134;48.768;9.184;2022-07-22T13:31:13;30.50;72.60
27741;DHT22;15134;48.768;9.184;2022-07-22T13:33:39;30.50;71.70
27741;DHT22;15134;48.768;9.184;2022-07-22T13:36:04;30.50;71.80
27741;DHT22;15134;48.768;9.184;2022-07-22T13:38:31;30.40;71.70
27741;DHT22;15134;48.768;9.184;2022-07-22T13:40:56;30.50;72.50
27741;DHT22;15134;48.768;9.184;2022-07-22T13:43:23;30.50;73.00
27741;DHT22;15134;48.768;9.184;2022-07-22T13:45:49;30.50;72.20
27741;DHT22;15134;48.768;9.184;2022-07-22T13:48:15;30.60;72.90
27741;DHT22;15134;48.768;9.184;2022-07-22T13:50:44;30.70;72.80
27741;DHT22;15134;48.768;9.184;2022-07-22T13:53:10;30.70;72.80
27741;DHT22;15134;48.768;9.184;2022-07-22T13:55:40;30.80;72.40
27741;DHT22;15134;48.768;9.184;2022-07-22T13:58:06;30.60;72.50
27741;DHT22;15134;48.768;9.184;2022-07-22T14:00:33;30.60;73.20
27741;DHT22;15134;48.768;9.184;2022-07-22T14:02:59;30.70;73.40
27741;DHT22;15134;48.768;9.184;2022-07-22T14:05:25;30.60;73.00
27741;DHT22;15134;48.768;9.184;2022-07-22T14:07:51;30.60;73.30
27741;DHT22;15134;48.768;9.184;2022-07-22T14:10:17;30.60;73.40
27741;DHT22;15134;48.768;9.184;2022-07-22T14:12:43;30.60;73.30
27741;DHT22;15134;48.768;9.184;2022-07-22T14:15:09;30.60;74.40
27741;DHT22;15134;48.768;9.184;2022-07-22T14:17:35;30.60;73.50
27741;DHT22;15134;48.768;9.184;2022-07-22T14:20:01;30.60;73.80
27741;DHT22;15134;48.768;9.184;2022-07-22T14:22:29;30.50;73.60
27741;DHT22;15134;48.768;9.184;2022-07-22T14:24:56;30.70;73.50
27741;DHT22;15134;48.768;9.184;2022-07-22T14:27:21;30.70;73.90
27741;DHT22;15134;48.768;9.184;2022-07-22T14:29:47;30.70;75.20
27741;DHT22;15134;48.768;9.184;2022-07-22T14:32:13;30.70;74.20
27741;DHT22;15134;48.768;9.184;2022-07-22T14:34:39;30.70;77.00
27741;DHT22;15134;48.768;9.184;2022-07-22T14:37:04;30.70;73.80
27741;DHT22;15134;48.768;9.184;2022-07-22T14:39:30;30.70;71.90
27741;DHT22;15134;48.768;9.184;2022-07-22T14:41:56;30.70;73.30
27741;DHT22;15134;48.768;9.184;2022-07-22T14:44:22;30.60;72.50
27741;DHT22;15134;48.768;9.184;2022-07-22T14:46:47;30.60;72.60
27741;DHT22;15134;48.768;9.184;2022-07-22T14:49:13;30.60;73.30
27741;DHT22;15134;48.768;9.184;2022-07-22T14:51:41;30.70;72.50
27741;DHT22;15134;48.768;9.184;2022-07-22T14:54:07;30.70;72.60
27741;DHT22;15134;48.768;9.184;2022-07-22T14:56:34;30.70;72.00
27741;DHT22;15134;48.768;9.184;2022-07-22T14:59:00;30.70;72.60
27741;DHT22;15134;48.768;9.184;2022-07-22T15:01:28;30.70;71.50
27741;DHT22;15134;48.768;9.184;2022-07-22T15:03:53;30.70;72.20
27741;DHT22;15134;48.768;9.184;2022-07-22T15:06:19;30.80;71.80
27741;DHT22;15134;48.768;9.184;2022-07-22T15:08:46;30.80;71.60
27741;DHT22;15134;48.768;9.184;2022-07-22T15:11:12;30.80;71.60
27741;DHT22;15134;48.768;9.184;2022-07-22T15:13:37;30.80;71.40
27741;DHT22;15134;48.768;9.184;2022-07-22T15:16:03;30.80;72.40
27741;DHT22;15134;48.768;9.184;2022-07-22T15:18:29;30.80;72.60
27741;DHT22;15134;48.768;9.184;2022-07-22T15:20:55;30.80;72.20
27741;DHT22;15134;48.768;9.184;2022-07-22T15:23:25;30.80;76.40
27741;DHT22;15134;48.768;9.184;2022-07-22T15:25:56;30.80;74.40
27741;DHT22;15134;48.768;9.184;2022-07-22T15:28:22;30.80;79.60
27741;DHT22;15134;48.768;9.184;2022-07-22T15:30:47;30.70;74.30
27741;DHT22;15134;48.768;9.184;2022-07-22T15:33:13;30.70;74.70
27741;DHT22;15134;48.768;9.184;2022-07-22T15:35:39;30.70;75.60
27741;DHT22;15134;48.768;9.184;2022-07-22T15:38:05;30.70;76.40
27741;DHT22;15134;48.768;9.184;2022-07-22T15:40:30;30.60;76.50
27741;DHT22;15134;48.768;9.184;2022-07-22T15:42:56;30.60;73.00
27741;DHT22;15134;48.768;9.184;2022-07-22T15:45:22;30.60;71.80
27741;DHT22;15134;48.768;9.184;2022-07-22T15:47:48;30.60;72.10
27741;DHT22;15134;48.768;9.184;2022-07-22T15:50:14;30.60;72.20
27741;DHT22;15134;48.768;9.184;2022-07-22T15:52:45;30.60;72.30
27741;DHT22;15134;48.768;9.184;2022-07-22T15:55:10;30.70;72.30